createdAt,value
2018-01-15T00:00:41.109Z,-1.45
2018-01-15T00:01:41.535Z,-1.42
2018-01-15T00:02:42.611Z,-1.4
2018-01-15T00:03:41.918Z,-1.4
2018-01-15T00:04:42.623Z,-1.46
2018-01-15T00:05:43.181Z,-1.45
2018-01-15T00:06:42.842Z,-1.45
2018-01-15T00:07:43.081Z,-1.35
2018-01-15T00:08:43.816Z,-1.5
2018-01-15T00:09:44.193Z,-1.46
2018-01-15T00:10:43.912Z,-1.37
2018-01-15T00:11:43.472Z,-1.5
2018-01-15T00:12:43.029Z,-1.38
2018-01-15T00:13:44.176Z,-1.42
2018-01-15T00:14:44.418Z,-1.38
2018-01-15T00:15:43.587Z,-1.45
2018-01-15T00:16:43.789Z,-1.42
2018-01-15T00:17:43.844Z,-1.45
2018-01-15T00:18:44.092Z,-1.38
2018-01-15T00:19:43.863Z,-1.37
2018-01-15T00:20:44.546Z,-1.49
2018-01-15T00:21:44.270Z,-1.4
2018-01-15T00:22:44.023Z,-1.35
2018-01-15T00:23:44.021Z,-1.37
2018-01-15T00:24:44.301Z,-1.45
2018-01-15T00:25:44.214Z,-1.35
2018-01-15T00:26:44.532Z,-1.38
2018-01-15T00:27:44.931Z,-1.45
2018-01-15T00:28:45.400Z,-1.45
2018-01-15T00:29:45.408Z,-1.4
2018-01-15T00:30:45.632Z,-1.37
2018-01-15T00:31:45.862Z,-1.4
2018-01-15T00:32:46.184Z,-1.43
2018-01-15T00:33:46.029Z,-1.38
2018-01-15T00:34:46.156Z,-1.42
2018-01-15T00:35:46.736Z,-1.42
2018-01-15T00:36:46.660Z,-1.4
2018-01-15T00:37:46.923Z,-1.45
2018-01-15T00:38:46.901Z,-1.37
2018-01-15T00:39:47.512Z,-1.37
2018-01-15T00:40:46.874Z,-1.32
2018-01-15T00:41:46.859Z,-1.38
2018-01-15T00:42:47.152Z,-1.42
2018-01-15T00:43:47.628Z,-1.45
2018-01-15T00:44:47.485Z,-1.42
2018-01-15T00:45:47.819Z,-1.4
2018-01-15T00:46:47.771Z,-1.38
2018-01-15T00:47:47.989Z,-1.34
2018-01-15T00:48:48.138Z,-1.42
2018-01-15T00:49:48.527Z,-1.31
2018-01-15T00:50:48.720Z,-1.46
2018-01-15T00:51:48.559Z,-1.31
2018-01-15T00:52:48.787Z,-1.32
2018-01-15T00:53:49.213Z,-1.31
2018-01-15T00:54:49.204Z,-1.43
2018-01-15T00:55:49.030Z,-1.45
2018-01-15T00:56:49.612Z,-1.43
2018-01-15T00:57:49.645Z,-1.43
2018-01-15T00:58:48.952Z,-1.34
2018-01-15T00:59:50.978Z,-1.3
2018-01-15T01:00:50.644Z,-1.31
2018-01-15T01:01:50.108Z,-1.43
2018-01-15T01:02:49.337Z,-1.43
2018-01-15T01:03:50.568Z,-1.37
2018-01-15T01:04:50.622Z,-1.35
2018-01-15T01:05:50.968Z,-1.32
2018-01-15T01:06:50.268Z,-1.3
2018-01-15T01:07:50.105Z,-1.46
2018-01-15T01:08:50.512Z,-1.35
2018-01-15T01:09:50.906Z,-1.37
2018-01-15T01:10:50.410Z,-1.4
2018-01-15T01:11:50.308Z,-1.4
2018-01-15T01:12:50.880Z,-1.45
2018-01-15T01:13:51.461Z,-1.46
2018-01-15T01:14:51.189Z,-1.31
2018-01-15T01:15:50.300Z,-1.35
2018-01-15T01:16:50.354Z,-1.48
2018-01-15T01:17:50.339Z,-1.38
2018-01-15T01:18:49.688Z,-1.35
2018-01-15T01:19:50.271Z,-1.43
2018-01-15T01:20:50.514Z,-1.35
2018-01-15T01:21:51.597Z,-1.3
2018-01-15T01:22:51.059Z,-1.42
2018-01-15T01:23:50.652Z,-1.4
2018-01-15T01:24:51.770Z,-1.43
2018-01-15T01:25:50.450Z,-1.42
2018-01-15T01:26:50.576Z,-1.43
2018-01-15T01:27:50.940Z,-1.35
2018-01-15T01:28:50.151Z,-1.37
2018-01-15T01:29:50.536Z,-1.43
2018-01-15T01:30:50.867Z,-1.27
2018-01-15T01:31:50.871Z,-1.31
2018-01-15T01:32:50.891Z,-1.43
2018-01-15T01:33:50.877Z,-1.43
2018-01-15T01:34:51.354Z,-1.28
2018-01-15T01:35:51.078Z,-1.32
2018-01-15T01:36:51.297Z,-1.31
2018-01-15T01:37:52.366Z,-1.34
2018-01-15T01:38:52.120Z,-1.32
2018-01-15T01:39:51.195Z,-1.31
2018-01-15T01:40:51.203Z,-1.28
2018-01-15T01:41:51.710Z,-1.37
2018-01-15T01:42:51.251Z,-1.31
2018-01-15T01:43:51.420Z,-1.28
2018-01-15T01:44:51.455Z,-1.34
2018-01-15T01:45:51.721Z,-1.45
2018-01-15T01:46:52.113Z,-1.3
2018-01-15T01:47:52.457Z,-1.32
2018-01-15T01:48:52.346Z,-1.32
2018-01-15T01:49:52.023Z,-1.31
2018-01-15T01:50:52.351Z,-1.28
2018-01-15T01:51:52.340Z,-1.35
2018-01-15T01:52:52.528Z,-1.31
2018-01-15T01:53:51.999Z,-1.37
2018-01-15T01:54:52.145Z,-1.43
2018-01-15T01:55:52.535Z,-1.42
2018-01-15T01:56:52.689Z,-1.43
2018-01-15T01:57:53.883Z,-1.35
2018-01-15T01:58:54.152Z,-1.4
2018-01-15T01:59:54.365Z,-1.38
2018-01-15T02:00:54.553Z,-1.45
2018-01-15T02:01:54.184Z,-1.38
2018-01-15T02:02:53.583Z,-1.42
2018-01-15T02:03:54.273Z,-1.42
2018-01-15T02:04:54.682Z,-1.28
2018-01-15T02:05:54.442Z,-1.3
2018-01-15T02:06:54.264Z,-1.32
2018-01-15T02:07:53.846Z,-1.3
2018-01-15T02:08:53.896Z,-1.32
2018-01-15T02:09:53.614Z,-1.25
2018-01-15T02:10:54.196Z,-1.35
2018-01-15T02:11:54.283Z,-1.32
2018-01-15T02:12:54.328Z,-1.28
2018-01-15T02:13:54.565Z,-1.28
2018-01-15T02:14:54.753Z,-1.3
2018-01-15T02:15:55.013Z,-1.28
2018-01-15T02:16:55.132Z,-1.21
2018-01-15T02:17:55.641Z,-1.31
2018-01-15T02:18:55.782Z,-1.34
2018-01-15T02:19:56.132Z,-1.28
2018-01-15T02:20:56.096Z,-1.25
2018-01-15T02:21:56.223Z,-1.3
2018-01-15T02:22:56.777Z,-1.24
2018-01-15T02:23:56.934Z,-1.3
2018-01-15T02:24:57.029Z,-1.28
2018-01-15T02:25:56.938Z,-1.24
2018-01-15T02:26:56.972Z,-1.24
2018-01-15T02:27:57.352Z,-1.3
2018-01-15T02:28:57.226Z,-1.22
2018-01-15T02:29:57.629Z,-1.3
2018-01-15T02:30:57.984Z,-1.21
2018-01-15T02:31:58.970Z,-1.3
2018-01-15T02:32:58.720Z,-1.22
2018-01-15T02:34:00.021Z,-1.3
2018-01-15T02:34:59.387Z,-1.24
2018-01-15T02:35:59.860Z,-1.27
2018-01-15T02:37:00.435Z,-1.32
2018-01-15T02:38:01.158Z,-1.3
2018-01-15T02:39:00.277Z,-1.21
2018-01-15T02:40:01.094Z,-1.24
2018-01-15T02:41:00.587Z,-1.25
2018-01-15T02:42:00.998Z,-1.28
2018-01-15T02:43:00.817Z,-1.28
2018-01-15T02:44:00.653Z,-1.24
2018-01-15T02:45:00.968Z,-1.21
2018-01-15T02:46:00.941Z,-1.3
2018-01-15T02:47:01.026Z,-1.27
2018-01-15T02:48:01.133Z,-1.25
2018-01-15T02:49:01.019Z,-1.19
2018-01-15T02:50:02.013Z,-1.28
2018-01-15T02:51:01.242Z,-1.32
2018-01-15T02:52:01.873Z,-1.25
2018-01-15T02:53:01.507Z,-1.32
2018-01-15T02:54:01.801Z,-1.21
2018-01-15T02:55:01.395Z,-1.22
2018-01-15T02:56:02.236Z,-1.31
2018-01-15T02:57:01.613Z,-1.21
2018-01-15T02:58:03.186Z,-1.25
2018-01-15T02:59:02.471Z,-1.25
2018-01-15T03:01:03.430Z,-1.22
2018-01-15T03:02:03.506Z,-1.22
2018-01-15T03:03:03.655Z,-1.27
2018-01-15T03:04:04.238Z,-1.24
2018-01-15T03:05:03.803Z,-1.22
2018-01-15T03:06:04.656Z,-1.32
2018-01-15T03:07:04.470Z,-1.24
2018-01-15T03:08:04.403Z,-1.22
2018-01-15T03:09:04.384Z,-1.27
2018-01-15T03:10:04.441Z,-1.3
2018-01-15T03:11:04.498Z,-1.3
2018-01-15T03:12:04.495Z,-1.24
2018-01-15T03:13:04.797Z,-1.3
2018-01-15T03:14:04.297Z,-1.17
2018-01-15T03:16:04.535Z,-1.25
2018-01-15T03:17:04.772Z,-1.24
2018-01-15T03:18:06.388Z,-1.22
2018-01-15T03:19:06.280Z,-1.14
2018-01-15T03:20:05.298Z,-1.17
2018-01-15T03:21:06.280Z,-1.21
2018-01-15T03:22:05.864Z,-1.14
2018-01-15T03:23:06.393Z,-1.16
2018-01-15T03:24:06.835Z,-1.13
2018-01-15T03:25:07.039Z,-1.21
2018-01-15T03:26:07.240Z,-1.19
2018-01-15T03:27:07.454Z,-1.09
2018-01-15T03:28:07.176Z,-1.16
2018-01-15T03:29:06.705Z,-1.21
2018-01-15T03:30:06.516Z,-1.21
2018-01-15T03:31:06.888Z,-1.11
2018-01-15T03:32:06.008Z,-1.16
2018-01-15T03:33:08.122Z,-1.14
2018-01-15T03:34:06.635Z,-1.11
2018-01-15T03:35:21.643Z,-1.14
2018-01-15T03:36:22.138Z,-1.17
2018-01-15T03:37:21.182Z,-1.14
2018-01-15T03:38:21.190Z,-1.16
2018-01-15T03:39:21.380Z,-1.19
2018-01-15T03:40:21.537Z,-1.13
2018-01-15T03:41:22.890Z,-1.19
2018-01-15T03:42:22.920Z,-1.16
2018-01-15T03:43:22.057Z,-1.13
2018-01-15T03:44:22.553Z,-1.21
2018-01-15T03:45:22.594Z,-1.16
2018-01-15T03:46:24.299Z,-1.17
2018-01-15T03:47:37.890Z,-1.14
2018-01-15T03:48:23.834Z,-1.21
2018-01-15T03:49:23.750Z,-1.16
2018-01-15T03:50:23.600Z,-1.14
2018-01-15T03:51:23.534Z,-1.19
2018-01-15T03:52:23.868Z,-1.24
2018-01-15T03:53:23.512Z,-1.27
2018-01-15T03:54:23.119Z,-1.21
2018-01-15T03:55:23.089Z,-1.17
2018-01-15T03:56:22.437Z,-1.16
2018-01-15T03:57:22.876Z,-1.19
2018-01-15T03:58:23.162Z,-1.14
2018-01-15T03:59:22.847Z,-1.24
2018-01-15T04:00:37.781Z,-1.21
2018-01-15T04:01:38.274Z,-1.11
2018-01-15T04:02:37.803Z,-1.16
2018-01-15T04:03:37.957Z,-1.19
2018-01-15T04:04:38.749Z,-1.22
2018-01-15T04:05:39.079Z,-1.13
2018-01-15T04:06:38.764Z,-1.09
2018-01-15T04:07:39.773Z,-1.22
2018-01-15T04:08:39.600Z,-1.21
2018-01-15T04:09:39.535Z,-1.21
2018-01-15T04:10:40.164Z,-1.21
2018-01-15T04:11:39.781Z,-1.19
2018-01-15T04:12:40.351Z,-1.09
2018-01-15T04:13:40.543Z,-1.1
2018-01-15T04:14:40.265Z,-1.09
2018-01-15T04:15:40.270Z,-1.09
2018-01-15T04:16:41.650Z,-1.07
2018-01-15T04:17:41.590Z,-1.04
2018-01-15T04:18:41.442Z,-1.11
2018-01-15T04:19:40.710Z,-1.07
2018-01-15T04:20:41.831Z,-1.17
2018-01-15T04:21:41.023Z,-1.17
2018-01-15T04:22:41.627Z,-1.11
2018-01-15T04:23:42.495Z,-1.16
2018-01-15T04:24:41.579Z,-1.13
2018-01-15T04:25:41.237Z,-1.14
2018-01-15T04:26:40.969Z,-1.06
2018-01-15T04:27:40.994Z,-1.13
2018-01-15T04:28:41.055Z,-1.1
2018-01-15T04:29:41.441Z,-1.09
2018-01-15T04:30:41.526Z,-1.07
2018-01-15T04:31:41.545Z,-1.1
2018-01-15T04:32:41.649Z,-1.01
2018-01-15T04:33:42.212Z,-1.07
2018-01-15T04:34:42.045Z,-1.04
2018-01-15T04:35:42.687Z,-1.1
2018-01-15T04:36:42.363Z,-1.07
2018-01-15T04:37:42.776Z,-1.07
2018-01-15T04:38:42.223Z,-1.09
2018-01-15T04:39:43.109Z,-1.13
2018-01-15T04:40:43.569Z,-1.07
2018-01-15T04:41:43.142Z,-1.04
2018-01-15T04:42:43.381Z,-1.03
2018-01-15T04:43:42.962Z,-1.01
2018-01-15T04:44:43.170Z,-1.01
2018-01-15T04:45:43.217Z,-1.03
2018-01-15T04:46:43.326Z,-1.1
2018-01-15T04:47:42.997Z,-1.06
2018-01-15T04:48:43.000Z,-1.07
2018-01-15T04:49:43.083Z,-1.06
2018-01-15T04:50:43.336Z,-1.03
2018-01-15T04:51:43.779Z,-0.93
2018-01-15T04:52:43.725Z,-0.96
2018-01-15T04:53:43.894Z,-0.96
2018-01-15T04:54:43.679Z,-0.96
2018-01-15T04:55:43.510Z,-0.98
2018-01-15T04:56:43.866Z,-0.98
2018-01-15T04:57:44.473Z,-1.03
2018-01-15T04:58:44.572Z,-1.01
2018-01-15T04:59:44.651Z,-0.96
2018-01-15T05:00:45.140Z,-0.95
2018-01-15T05:01:45.588Z,-0.95
2018-01-15T05:02:45.725Z,-0.95
2018-01-15T05:03:45.327Z,-0.98
2018-01-15T05:04:45.613Z,-0.95
2018-01-15T05:05:45.770Z,-0.98
2018-01-15T05:06:45.869Z,-0.92
2018-01-15T05:07:46.113Z,-0.95
2018-01-15T05:08:45.637Z,-0.93
2018-01-15T05:09:46.223Z,-0.92
2018-01-15T05:10:46.180Z,-0.89
2018-01-15T05:11:45.952Z,-0.92
2018-01-15T05:12:46.187Z,-0.87
2018-01-15T05:13:46.431Z,-0.82
2018-01-15T05:14:46.169Z,-0.87
2018-01-15T05:15:46.610Z,-0.89
2018-01-15T05:16:46.093Z,-0.84
2018-01-15T05:17:46.371Z,-0.91
2018-01-15T05:18:46.293Z,-0.91
2018-01-15T05:19:46.560Z,-0.85
2018-01-15T05:20:46.842Z,-0.87
2018-01-15T05:21:46.875Z,-0.91
2018-01-15T05:22:47.340Z,-0.85
2018-01-15T05:23:47.552Z,-0.85
2018-01-15T05:24:48.064Z,-0.87
2018-01-15T05:25:48.079Z,-0.82
2018-01-15T05:26:47.555Z,-0.87
2018-01-15T05:27:47.839Z,-0.82
2018-01-15T05:28:47.652Z,-0.87
2018-01-15T05:29:48.992Z,-0.79
2018-01-15T05:30:49.066Z,-0.76
2018-01-15T05:31:49.241Z,-0.79
2018-01-15T05:32:48.995Z,-0.82
2018-01-15T05:33:48.970Z,-0.8
2018-01-15T05:34:48.668Z,-0.77
2018-01-15T05:35:48.977Z,-0.84
2018-01-15T05:36:49.011Z,-0.74
2018-01-15T05:37:48.683Z,-0.73
2018-01-15T05:38:48.800Z,-0.79
2018-01-15T05:39:48.823Z,-0.7
2018-01-15T05:40:49.231Z,-0.73
2018-01-15T05:41:49.673Z,-0.69
2018-01-15T05:42:48.963Z,-0.73
2018-01-15T05:43:49.814Z,-0.77
2018-01-15T05:44:49.576Z,-0.74
2018-01-15T05:45:49.377Z,-0.74
2018-01-15T05:46:50.768Z,-0.74
2018-01-15T05:47:50.033Z,-0.8
2018-01-15T05:48:50.886Z,-0.8
2018-01-15T05:49:50.777Z,-0.82
2018-01-15T05:50:50.255Z,-0.89
2018-01-15T05:51:50.274Z,-0.84
2018-01-15T05:52:50.023Z,-0.92
2018-01-15T05:53:50.728Z,-1.04
2018-01-15T05:54:50.712Z,-1.03
2018-01-15T05:55:50.501Z,-1.17
2018-01-15T05:56:50.540Z,-1.21
2018-01-15T05:57:50.853Z,-1.28
2018-01-15T05:58:50.777Z,-1.34
2018-01-15T05:59:50.737Z,-1.4
2018-01-15T06:01:05.756Z,-1.42
2018-01-15T06:01:50.915Z,-1.4
2018-01-15T06:02:51.209Z,-1.5
2018-01-15T06:03:51.316Z,-1.46
2018-01-15T06:04:51.862Z,-1.49
2018-01-15T06:05:51.630Z,-1.53
2018-01-15T06:06:51.365Z,-1.52
2018-01-15T06:07:51.307Z,-1.58
2018-01-15T06:08:51.662Z,-1.5
2018-01-15T06:09:51.665Z,-1.74
2018-01-15T06:10:51.964Z,-1.67
2018-01-15T06:11:52.067Z,-1.79
2018-01-15T06:12:52.023Z,-1.84
2018-01-15T06:13:52.881Z,-1.76
2018-01-15T06:14:52.037Z,-1.88
2018-01-15T06:15:51.987Z,-1.99
2018-01-15T06:16:53.281Z,-2
2018-01-15T06:17:53.017Z,-2
2018-01-15T06:18:53.109Z,-2.02
2018-01-15T06:19:52.256Z,-2.05
2018-01-15T06:20:52.713Z,-1.97
2018-01-15T06:21:52.787Z,-2.06
2018-01-15T06:22:53.731Z,-2.05
2018-01-15T06:23:52.412Z,-2.02
2018-01-15T06:24:52.634Z,-2.03
2018-01-15T06:25:52.394Z,-1.97
2018-01-15T06:26:52.429Z,-2
2018-01-15T06:27:52.583Z,-2.02
2018-01-15T06:28:52.869Z,-2.07
2018-01-15T06:29:52.710Z,-2.05
2018-01-15T06:30:52.965Z,-2.07
2018-01-15T06:31:52.437Z,-2.1
2018-01-15T06:32:52.602Z,-2.06
2018-01-15T06:33:52.722Z,-2.1
2018-01-15T06:34:53.580Z,-2.06
2018-01-15T06:35:53.545Z,-2.05
2018-01-15T06:36:53.731Z,-2.09
2018-01-15T06:37:53.777Z,-2.1
2018-01-15T06:38:53.644Z,-2.1
2018-01-15T06:39:53.703Z,-2.03
2018-01-15T06:40:53.704Z,-2.12
2018-01-15T06:41:53.790Z,-2.03
2018-01-15T06:42:53.431Z,-2.15
2018-01-15T06:43:53.447Z,-2.17
2018-01-15T06:44:53.932Z,-2.15
2018-01-15T06:45:53.934Z,-2.1
2018-01-15T06:46:53.969Z,-2.2
2018-01-15T06:47:53.482Z,-2.17
2018-01-15T06:48:53.798Z,-2.14
2018-01-15T06:49:54.186Z,-2.2
2018-01-15T06:50:54.007Z,-2.2
2018-01-15T06:51:54.087Z,-2.24
2018-01-15T06:52:54.316Z,-2.18
2018-01-15T06:53:54.095Z,-2.12
2018-01-15T06:54:54.119Z,-2.17
2018-01-15T06:55:54.141Z,-2.07
2018-01-15T06:56:53.906Z,-2.17
2018-01-15T06:57:54.653Z,-2.06
2018-01-15T06:58:54.935Z,-2.05
2018-01-15T06:59:54.454Z,-2.21
2018-01-15T07:00:54.661Z,-2.17
2018-01-15T07:01:55.370Z,-2.12
2018-01-15T07:02:54.806Z,-2.18
2018-01-15T07:03:55.682Z,-2.21
2018-01-15T07:04:56.248Z,-2.21
2018-01-15T07:05:55.694Z,-2.23
2018-01-15T07:06:55.716Z,-2.27
2018-01-15T07:07:55.447Z,-2.34
2018-01-15T07:08:55.710Z,-2.4
2018-01-15T07:09:56.137Z,-2.42
2018-01-15T07:10:55.564Z,-2.36
2018-01-15T07:11:56.629Z,-2.36
2018-01-15T07:12:55.881Z,-2.37
2018-01-15T07:13:56.234Z,-2.32
2018-01-15T07:14:56.472Z,-2.27
2018-01-15T07:15:56.316Z,-2.24
2018-01-15T07:16:56.359Z,-2.27
2018-01-15T07:17:56.762Z,-2.23
2018-01-15T07:18:56.517Z,-2.32
2018-01-15T07:19:56.820Z,-2.25
2018-01-15T07:20:56.804Z,-2.23
2018-01-15T07:21:57.048Z,-2.3
2018-01-15T07:22:56.960Z,-2.32
2018-01-15T07:23:57.458Z,-2.28
2018-01-15T07:24:57.459Z,-2.25
2018-01-15T07:25:57.568Z,-2.23
2018-01-15T07:26:59.930Z,-2.28
2018-01-15T07:27:58.580Z,-2.23
2018-01-15T07:28:58.892Z,-2.1
2018-01-15T07:29:58.471Z,-2.18
2018-01-15T07:30:58.957Z,-2.1
2018-01-15T07:31:58.748Z,-2.12
2018-01-15T07:32:58.930Z,-2.2
2018-01-15T07:33:59.731Z,-2.2
2018-01-15T07:34:59.163Z,-2.14
2018-01-15T07:35:59.537Z,-2.15
2018-01-15T07:37:00.395Z,-2.14
2018-01-15T07:38:00.431Z,-2.15
2018-01-15T07:38:59.783Z,-2.21
2018-01-15T07:39:59.566Z,-2.09
2018-01-15T07:40:59.959Z,-2.03
2018-01-15T07:41:59.258Z,-2.09
2018-01-15T07:42:59.733Z,-2.07
2018-01-15T07:43:59.689Z,-2.03
2018-01-15T07:44:59.742Z,-2.02
2018-01-15T07:45:59.753Z,-2.07
2018-01-15T07:46:59.947Z,-2.03
2018-01-15T07:47:59.815Z,-2.1
2018-01-15T07:48:59.594Z,-2.02
2018-01-15T07:50:15.803Z,-2.1
2018-01-15T07:51:00.242Z,-2.06
2018-01-15T07:52:00.813Z,-2.06
2018-01-15T07:53:01.030Z,-2.05
2018-01-15T07:54:00.268Z,-2.02
2018-01-15T07:55:00.569Z,-2.02
2018-01-15T07:56:00.790Z,-1.97
2018-01-15T07:57:00.634Z,-1.96
2018-01-15T07:58:00.993Z,-2.03
2018-01-15T07:59:00.855Z,-2.03
2018-01-15T08:00:00.106Z,-1.96
2018-01-15T08:01:00.460Z,-1.94
2018-01-15T08:02:02.465Z,-1.96
2018-01-15T08:03:01.567Z,-1.97
2018-01-15T08:04:02.067Z,-1.96
2018-01-15T08:05:02.550Z,-1.91
2018-01-15T08:06:01.639Z,-1.99
2018-01-15T08:07:01.617Z,-1.89
2018-01-15T08:08:01.734Z,-1.89
2018-01-15T08:09:01.577Z,-1.89
2018-01-15T08:10:01.648Z,-2
2018-01-15T08:11:01.661Z,-1.84
2018-01-15T08:12:02.241Z,-1.84
2018-01-15T08:13:02.164Z,-1.79
2018-01-15T08:14:02.048Z,-1.76
2018-01-15T08:15:02.053Z,-1.88
2018-01-15T08:16:01.836Z,-1.78
2018-01-15T08:17:02.579Z,-1.79
2018-01-15T08:18:02.275Z,-1.81
2018-01-15T08:19:03.157Z,-1.73
2018-01-15T08:20:03.154Z,-1.66
2018-01-15T08:21:03.807Z,-1.66
2018-01-15T08:22:02.914Z,-1.71
2018-01-15T08:23:03.197Z,-1.6
2018-01-15T08:24:02.694Z,-1.58
2018-01-15T08:25:02.733Z,-1.6
2018-01-15T08:26:02.960Z,-1.5
2018-01-15T08:27:03.251Z,-1.56
2018-01-15T08:28:03.870Z,-1.53
2018-01-15T08:29:03.990Z,-1.5
2018-01-15T08:30:03.827Z,-1.55
2018-01-15T08:31:03.070Z,-1.45
2018-01-15T08:32:03.946Z,-1.46
2018-01-15T08:33:05.073Z,-1.43
2018-01-15T08:34:05.038Z,-1.49
2018-01-15T08:35:05.076Z,-1.5
2018-01-15T08:36:06.178Z,-1.42
2018-01-15T08:37:05.256Z,-1.43
2018-01-15T08:38:06.104Z,-1.35
2018-01-15T08:39:05.280Z,-1.32
2018-01-15T08:40:06.412Z,-1.32
2018-01-15T08:41:06.484Z,-1.22
2018-01-15T08:42:05.564Z,-1.27
2018-01-15T08:43:05.232Z,-1.21
2018-01-15T08:44:06.209Z,-1.22
2018-01-15T08:45:06.733Z,-1.27
2018-01-15T08:46:06.251Z,-1.17
2018-01-15T08:47:06.227Z,-1.16
2018-01-15T08:48:05.633Z,-1.03
2018-01-15T08:49:05.709Z,-1.1
2018-01-15T08:50:05.279Z,-0.98
2018-01-15T08:51:06.262Z,-0.95
2018-01-15T08:52:05.481Z,-0.95
2018-01-15T08:53:05.137Z,-0.85
2018-01-15T08:54:05.922Z,-0.87
2018-01-15T08:55:06.325Z,-0.82
2018-01-15T08:56:05.047Z,-0.82
2018-01-15T08:57:05.387Z,-0.79
2018-01-15T08:58:05.105Z,-0.76
2018-01-15T08:59:06.237Z,-0.66
2018-01-15T09:00:21.228Z,-0.66
2018-01-15T09:01:05.782Z,-0.59
2018-01-15T09:02:06.735Z,-0.55
2018-01-15T09:03:06.312Z,-0.49
2018-01-15T09:04:06.173Z,-0.48
2018-01-15T09:05:05.787Z,-0.28
2018-01-15T09:06:06.322Z,-0.23
2018-01-15T09:07:05.827Z,0.27
2018-01-15T09:08:05.984Z,0.72
2018-01-15T09:09:06.173Z,1.21
2018-01-15T09:11:06.499Z,2.51
2018-01-15T09:12:07.326Z,3.26
2018-01-15T09:13:07.468Z,3.92
2018-01-15T09:14:06.897Z,4.3
2018-01-15T09:15:06.719Z,4.71
2018-01-15T09:16:06.995Z,5.24
2018-01-15T09:18:07.006Z,5.67
2018-01-15T09:19:08.163Z,5.66
2018-01-15T09:20:07.621Z,5.63
2018-01-15T09:21:07.926Z,5.36
2018-01-15T09:22:08.137Z,5.3
2018-01-15T09:23:07.943Z,5.26
2018-01-15T09:24:08.235Z,5.57
2018-01-15T09:25:08.360Z,5.81
2018-01-15T09:26:08.025Z,5.99
2018-01-15T09:27:13.512Z,6.09
2018-01-15T09:28:13.616Z,6.29
2018-01-15T09:29:13.362Z,6.26
2018-01-15T09:30:13.639Z,6.39
2018-01-15T09:31:13.677Z,6.25
2018-01-15T09:32:13.454Z,6.21
2018-01-15T09:33:13.749Z,6.39
2018-01-15T09:34:13.827Z,6.37
2018-01-15T09:35:13.996Z,6.51
2018-01-15T09:36:15.412Z,6.78
2018-01-15T09:37:15.442Z,6.98
2018-01-15T09:38:14.323Z,7.03
2018-01-15T09:39:13.975Z,7.08
2018-01-15T09:40:14.540Z,7
2018-01-15T09:41:14.151Z,6.88
2018-01-15T09:42:14.915Z,6.65
2018-01-15T09:43:14.696Z,6.67
2018-01-15T09:44:14.912Z,6.58
2018-01-15T09:45:14.162Z,6.64
2018-01-15T09:46:15.221Z,6.91
2018-01-15T09:47:15.196Z,7.05
2018-01-15T09:48:15.507Z,7
2018-01-15T09:49:16.200Z,6.67
2018-01-15T09:50:15.622Z,6.51
2018-01-15T09:51:15.426Z,6.33
2018-01-15T09:52:15.380Z,6.34
2018-01-15T09:53:16.040Z,6.44
2018-01-15T09:54:15.806Z,6.43
2018-01-15T09:55:15.353Z,6.57
2018-01-15T09:56:15.411Z,6.65
2018-01-15T09:57:15.153Z,7.01
2018-01-15T09:58:15.741Z,6.93
2018-01-15T09:59:15.831Z,6.75
2018-01-15T10:00:15.937Z,6.52
2018-01-15T10:01:16.210Z,6.4
2018-01-15T10:02:16.255Z,6.28
2018-01-15T10:03:16.330Z,6.28
2018-01-15T10:04:16.357Z,6.42
2018-01-15T10:05:16.865Z,6.57
2018-01-15T10:06:16.706Z,6.9
2018-01-15T10:07:17.922Z,7.08
2018-01-15T10:08:17.817Z,7.33
2018-01-15T10:09:17.995Z,7.47
2018-01-15T10:10:16.794Z,7.56
2018-01-15T10:11:16.786Z,7.56
2018-01-15T10:12:16.769Z,7.78
2018-01-15T10:13:16.278Z,8.06
2018-01-15T10:14:45.937Z,8.13
2018-01-15T10:15:16.511Z,8.25
2018-01-15T10:16:18.305Z,8.46
2018-01-15T10:17:18.137Z,8.67
2018-01-15T10:18:17.888Z,8.74
2018-01-15T10:19:17.602Z,8.87
2018-01-15T10:20:17.356Z,8.83
2018-01-15T10:21:17.357Z,8.87
2018-01-15T10:22:17.877Z,9.14
2018-01-15T10:23:17.318Z,9.21
2018-01-15T10:24:17.769Z,9.2
2018-01-15T10:25:17.762Z,9.17
2018-01-15T10:26:18.253Z,9.17
2018-01-15T10:27:18.758Z,9.08
2018-01-15T10:28:18.750Z,9.04
2018-01-15T10:29:18.295Z,9.09
2018-01-15T10:30:18.791Z,9.03
2018-01-15T10:31:19.580Z,8.97
2018-01-15T10:32:18.903Z,8.89
2018-01-15T10:33:18.712Z,8.97
2018-01-15T10:34:19.707Z,9.11
2018-01-15T10:35:19.494Z,9.08
2018-01-15T10:36:18.974Z,9.23
2018-01-15T10:37:19.391Z,9.05
2018-01-15T10:38:19.636Z,8.85
2018-01-15T10:39:19.302Z,8.57
2018-01-15T10:40:19.955Z,8.65
2018-01-15T10:41:19.558Z,8.74
2018-01-15T10:42:20.200Z,8.77
2018-01-15T10:43:19.867Z,8.72
2018-01-15T10:44:20.490Z,8.87
2018-01-15T10:45:20.510Z,8.87
2018-01-15T10:46:20.746Z,8.68
2018-01-15T10:47:21.158Z,8.6
2018-01-15T10:48:21.207Z,8.62
2018-01-15T10:49:20.952Z,8.49
2018-01-15T10:50:21.110Z,8.13
2018-01-15T10:51:21.295Z,7.99
2018-01-15T10:52:21.329Z,8.32
2018-01-15T10:53:21.183Z,8.52
2018-01-15T10:54:21.774Z,8.47
2018-01-15T10:55:21.452Z,8.44
2018-01-15T10:56:21.380Z,8.46
2018-01-15T10:57:21.443Z,8.4
2018-01-15T10:58:21.914Z,8.34
2018-01-15T10:59:22.320Z,8.25
2018-01-15T11:00:27.759Z,8.42
2018-01-15T11:01:27.921Z,8.52
2018-01-15T11:02:27.734Z,8.53
2018-01-15T11:03:28.350Z,8.61
2018-01-15T11:04:28.406Z,8.47
2018-01-15T11:05:27.764Z,8.71
2018-01-15T11:06:28.276Z,8.87
2018-01-15T11:07:28.570Z,8.9
2018-01-15T11:08:27.911Z,8.89
2018-01-15T11:09:28.185Z,9.09
2018-01-15T11:10:28.054Z,9.2
2018-01-15T11:11:28.193Z,9
2018-01-15T11:12:28.351Z,8.87
2018-01-15T11:13:28.369Z,8.85
2018-01-15T11:14:29.316Z,8.98
2018-01-15T11:15:29.278Z,8.87
2018-01-15T11:16:29.507Z,8.62
2018-01-15T11:17:30.494Z,8.54
2018-01-15T11:18:29.342Z,8.54
2018-01-15T11:19:29.462Z,8.5
2018-01-15T11:20:30.092Z,8.44
2018-01-15T11:21:30.393Z,8.5
2018-01-15T11:22:30.326Z,8.34
2018-01-15T11:23:30.439Z,8.26
2018-01-15T11:24:30.342Z,8.25
2018-01-15T11:25:30.653Z,8.39
2018-01-15T11:26:30.337Z,8.53
2018-01-15T11:27:30.492Z,8.62
2018-01-15T11:28:30.882Z,8.5
2018-01-15T11:29:30.776Z,8.57
2018-01-15T11:30:31.093Z,8.71
2018-01-15T11:31:31.118Z,8.85
2018-01-15T11:32:32.209Z,8.85
2018-01-15T11:33:31.304Z,8.47
2018-01-15T11:34:31.759Z,8.22
2018-01-15T11:35:31.884Z,7.91
2018-01-15T11:36:34.012Z,7.89
2018-01-15T11:37:32.719Z,8.09
2018-01-15T11:38:33.629Z,8.1
2018-01-15T11:39:34.091Z,8.26
2018-01-15T11:40:34.234Z,8.13
2018-01-15T11:41:32.778Z,7.96
2018-01-15T11:42:34.277Z,7.83
2018-01-15T11:43:33.656Z,7.54
2018-01-15T11:44:33.359Z,7.44
2018-01-15T11:45:33.639Z,7.45
2018-01-15T11:46:33.188Z,7.44
2018-01-15T11:47:33.397Z,7.44
2018-01-15T11:48:33.780Z,7.44
2018-01-15T11:49:34.753Z,7.29
2018-01-15T11:50:34.901Z,7.34
2018-01-15T11:51:33.757Z,7.31
2018-01-15T11:52:33.399Z,7.49
2018-01-15T11:53:34.006Z,7.47
2018-01-15T11:54:35.805Z,7.41
2018-01-15T11:55:34.559Z,7.48
2018-01-15T11:56:34.386Z,7.44
2018-01-15T11:57:34.791Z,7.39
2018-01-15T11:58:35.062Z,7.27
2018-01-15T11:59:34.911Z,7.27
2018-01-15T12:00:34.905Z,7.15
2018-01-15T12:01:34.756Z,6.93
2018-01-15T12:02:35.388Z,6.83
2018-01-15T12:03:35.698Z,6.9
2018-01-15T12:04:35.643Z,6.78
2018-01-15T12:05:36.034Z,6.73
2018-01-15T12:06:36.276Z,6.58
2018-01-15T12:07:36.399Z,6.61
2018-01-15T12:08:36.086Z,6.49
2018-01-15T12:09:36.521Z,6.46
2018-01-15T12:10:36.684Z,6.39
2018-01-15T12:11:36.795Z,6.24
2018-01-15T12:12:37.087Z,6
2018-01-15T12:13:36.912Z,5.84
2018-01-15T12:14:37.226Z,5.8
2018-01-15T12:15:37.918Z,5.7
2018-01-15T12:16:38.004Z,5.57
2018-01-15T12:17:38.152Z,5.41
2018-01-15T12:18:37.830Z,5.09
2018-01-15T12:19:38.281Z,4.85
2018-01-15T12:20:38.244Z,4.6
2018-01-15T12:21:38.545Z,4.36
2018-01-15T12:22:38.682Z,4.29
2018-01-15T12:23:39.309Z,4.3
2018-01-15T12:24:39.813Z,4.29
2018-01-15T12:25:39.656Z,4.33
2018-01-15T12:26:39.405Z,4.36
2018-01-15T12:27:39.603Z,4.46
2018-01-15T12:28:41.181Z,4.5
2018-01-15T12:29:41.045Z,4.58
2018-01-15T12:30:40.656Z,4.57
2018-01-15T12:31:40.529Z,4.57
2018-01-15T12:32:40.786Z,4.54
2018-01-15T12:33:40.155Z,4.54
2018-01-15T12:34:39.755Z,4.51
2018-01-15T12:35:41.355Z,4.58
2018-01-15T12:36:40.897Z,4.48
2018-01-15T12:37:40.956Z,4.51
2018-01-15T12:38:41.709Z,4.51
2018-01-15T12:39:41.274Z,4.6
2018-01-15T12:40:41.607Z,4.54
2018-01-15T12:41:40.942Z,4.48
2018-01-15T12:42:41.364Z,4.54
2018-01-15T12:43:40.873Z,4.56
2018-01-15T12:45:40.708Z,4.57
2018-01-15T12:46:41.254Z,4.66
2018-01-15T12:47:41.433Z,4.68
2018-01-15T12:48:41.515Z,4.66
2018-01-15T12:49:41.352Z,4.66
2018-01-15T12:50:41.039Z,4.48
2018-01-15T12:51:41.110Z,4.44
2018-01-15T12:52:41.281Z,4.32
2018-01-15T12:53:41.640Z,4.2
2018-01-15T12:54:41.653Z,4.17
2018-01-15T12:55:41.993Z,4
2018-01-15T12:56:41.188Z,4.02
2018-01-15T12:57:41.305Z,4
2018-01-15T12:58:42.278Z,3.94
2018-01-15T12:59:41.695Z,3.86
2018-01-15T13:00:42.000Z,3.94
2018-01-15T13:01:42.212Z,3.9
2018-01-15T13:02:42.204Z,4.03
2018-01-15T13:03:42.628Z,3.97
2018-01-15T13:04:42.545Z,4.1
2018-01-15T13:05:43.120Z,4.12
2018-01-15T13:06:42.508Z,4.14
2018-01-15T13:07:42.334Z,4.17
2018-01-15T13:08:42.616Z,4.2
2018-01-15T13:09:42.905Z,4.18
2018-01-15T13:10:42.587Z,4.21
2018-01-15T13:11:42.885Z,4.29